createdAt,value
2018-03-07T00:00:59.048Z,75.30
2018-03-07T00:02:04.470Z,75.60
2018-03-07T00:03:09.966Z,75.88
2018-03-07T00:04:15.669Z,76.22
2018-03-07T00:05:21.200Z,76.41
2018-03-07T00:06:26.740Z,76.56
2018-03-07T00:07:32.110Z,76.53
2018-03-07T00:08:37.661Z,76.71
2018-03-07T00:09:43.909Z,76.79
2018-03-07T00:10:51.524Z,76.97
2018-03-07T00:11:57.468Z,77.15
2018-03-07T00:13:03.351Z,77.14
2018-03-07T00:14:12.160Z,77.07
2018-03-07T00:15:18.979Z,76.97
2018-03-07T00:16:24.656Z,76.98
2018-03-07T00:17:30.659Z,77.00
2018-03-07T00:18:36.099Z,77.19
2018-03-07T00:19:41.800Z,77.39
2018-03-07T00:20:47.518Z,77.43
2018-03-07T00:21:53.131Z,77.41
2018-03-07T00:22:58.969Z,77.45
2018-03-07T00:24:05.120Z,77.41
2018-03-07T00:25:10.922Z,77.39
2018-03-07T00:26:16.735Z,77.40
2018-03-07T00:27:22.218Z,77.33
2018-03-07T00:28:28.785Z,77.31
2018-03-07T00:29:34.911Z,77.23
2018-03-07T00:30:40.587Z,77.24
2018-03-07T00:31:46.313Z,77.22
2018-03-07T00:32:51.925Z,77.16
2018-03-07T00:33:57.531Z,77.09
2018-03-07T00:35:03.085Z,77.08
2018-03-07T00:36:09.238Z,77.04
2018-03-07T00:37:14.841Z,77.01
2018-03-07T00:38:20.479Z,77.02
2018-03-07T00:39:26.429Z,77.06
2018-03-07T00:40:32.068Z,77.02
2018-03-07T00:41:37.762Z,76.91
2018-03-07T00:42:43.970Z,76.99
2018-03-07T00:43:49.715Z,77.09
2018-03-07T00:44:55.575Z,77.24
2018-03-07T00:46:01.238Z,77.30
2018-03-07T00:47:07.062Z,77.35
2018-03-07T00:48:13.204Z,77.42
2018-03-07T00:49:19.335Z,77.45
2018-03-07T00:50:25.081Z,77.44
2018-03-07T00:51:31.101Z,77.37
2018-03-07T00:52:37.857Z,77.31
2018-03-07T00:53:44.174Z,77.29
2018-03-07T00:54:50.058Z,77.20
2018-03-07T00:55:56.529Z,77.05
2018-03-07T00:57:02.462Z,77.02
2018-03-07T00:58:08.150Z,77.12
2018-03-07T00:59:13.839Z,77.20
2018-03-07T01:00:19.471Z,77.27
2018-03-07T01:01:25.435Z,77.31
2018-03-07T01:02:31.395Z,77.32
2018-03-07T01:03:37.395Z,77.22
2018-03-07T01:04:43.027Z,77.37
2018-03-07T01:05:48.580Z,77.51
2018-03-07T01:06:55.006Z,77.56
2018-03-07T01:08:00.572Z,77.60
2018-03-07T01:09:07.080Z,77.71
2018-03-07T01:10:16.277Z,77.84
2018-03-07T01:11:21.875Z,77.93
2018-03-07T01:12:27.502Z,77.95
2018-03-07T01:13:33.345Z,78.12
2018-03-07T01:14:38.879Z,78.27
2018-03-07T01:15:45.201Z,78.41
2018-03-07T01:16:51.652Z,78.50
2018-03-07T01:17:57.625Z,78.55
2018-03-07T01:19:03.665Z,78.60
2018-03-07T01:20:12.896Z,78.62
2018-03-07T01:21:18.848Z,78.74
2018-03-07T01:22:25.356Z,78.84
2018-03-07T01:23:31.369Z,78.92
2018-03-07T01:24:37.001Z,78.99
2018-03-07T01:25:42.484Z,79.07
2018-03-07T01:26:48.308Z,79.29
2018-03-07T01:27:54.660Z,79.50
2018-03-07T01:29:00.458Z,79.66
2018-03-07T01:30:06.400Z,79.82
2018-03-07T01:31:16.974Z,80.04
2018-03-07T01:32:23.403Z,80.20
2018-03-07T01:33:29.535Z,80.37
2018-03-07T01:34:35.539Z,80.59
2018-03-07T01:35:41.262Z,80.71
2018-03-07T01:36:47.060Z,80.78
2018-03-07T01:37:53.119Z,80.82
2018-03-07T01:38:58.865Z,80.87
2018-03-07T01:40:04.898Z,81.00
2018-03-07T01:41:10.899Z,81.08
2018-03-07T01:42:16.664Z,81.19
2018-03-07T01:43:22.906Z,81.27
2018-03-07T01:44:29.101Z,81.28
2018-03-07T01:45:34.585Z,81.31
2018-03-07T01:46:39.912Z,81.32
2018-03-07T01:47:45.735Z,81.31
2018-03-07T01:48:51.112Z,81.35
2018-03-07T01:49:56.884Z,81.45
2018-03-07T01:51:02.579Z,81.58
2018-03-07T01:52:08.135Z,81.69
2018-03-07T01:53:13.731Z,81.71
2018-03-07T01:54:19.489Z,81.74
2018-03-07T01:55:25.404Z,81.73
2018-03-07T01:56:30.710Z,81.65
2018-03-07T01:57:36.530Z,81.73
2018-03-07T01:58:42.226Z,81.70
2018-03-07T01:59:47.653Z,81.72
2018-03-07T02:00:53.764Z,81.70
2018-03-07T02:01:59.069Z,81.79
2018-03-07T02:03:04.463Z,81.92
2018-03-07T02:04:10.093Z,82.09
2018-03-07T02:05:15.201Z,82.28
2018-03-07T02:06:20.554Z,82.29
2018-03-07T02:07:26.512Z,82.42
2018-03-07T02:08:31.902Z,82.55
2018-03-07T02:09:37.355Z,82.65
2018-03-07T02:10:42.806Z,82.62
2018-03-07T02:11:48.193Z,82.87
2018-03-07T02:12:53.505Z,83.10
2018-03-07T02:13:58.839Z,83.24
2018-03-07T02:15:04.138Z,83.26
2018-03-07T02:16:09.255Z,83.25
2018-03-07T02:17:14.604Z,83.21
2018-03-07T02:18:19.972Z,83.24
2018-03-07T02:19:25.897Z,83.24
2018-03-07T02:20:31.471Z,83.26
2018-03-07T02:21:36.578Z,83.30
2018-03-07T02:22:42.151Z,83.45
2018-03-07T02:23:47.375Z,83.53
2018-03-07T02:24:53.192Z,83.60
2018-03-07T02:25:58.420Z,83.70
2018-03-07T02:27:04.252Z,83.71
2018-03-07T02:28:09.919Z,83.75
2018-03-07T02:29:15.236Z,83.66
2018-03-07T02:30:20.616Z,83.71
2018-03-07T02:31:26.808Z,83.79
2018-03-07T02:32:31.933Z,83.93
2018-03-07T02:33:37.012Z,84.03
2018-03-07T02:34:42.742Z,84.01
2018-03-07T02:35:47.837Z,83.97
2018-03-07T02:36:53.857Z,83.99
2018-03-07T02:37:59.432Z,83.99
2018-03-07T02:39:05.034Z,83.95
2018-03-07T02:40:10.833Z,84.06
2018-03-07T02:41:16.147Z,84.18
2018-03-07T02:42:21.146Z,84.29
2018-03-07T02:43:26.723Z,84.28
2018-03-07T02:44:32.001Z,84.28
2018-03-07T02:45:37.121Z,84.21
2018-03-07T02:46:42.563Z,84.24
2018-03-07T02:47:47.636Z,84.35
2018-03-07T02:48:53.050Z,84.41
2018-03-07T02:49:58.433Z,84.46
2018-03-07T02:51:03.742Z,84.50
2018-03-07T02:52:08.760Z,84.50
2018-03-07T02:53:14.099Z,84.48
2018-03-07T02:54:19.487Z,84.56
2018-03-07T02:55:24.586Z,84.63
2018-03-07T02:56:29.562Z,84.70
2018-03-07T02:57:34.635Z,84.71
2018-03-07T02:58:39.785Z,84.70
2018-03-07T02:59:45.547Z,84.63
2018-03-07T03:00:51.152Z,84.65
2018-03-07T03:01:56.404Z,84.56
2018-03-07T03:03:01.774Z,84.65
2018-03-07T03:04:06.971Z,84.76
2018-03-07T03:05:11.873Z,84.93
2018-03-07T03:06:17.464Z,85.00
2018-03-07T03:07:23.008Z,85.07
2018-03-07T03:08:28.528Z,85.26
2018-03-07T03:09:33.563Z,85.33
2018-03-07T03:10:39.688Z,85.28
2018-03-07T03:11:45.034Z,85.32
2018-03-07T03:12:50.691Z,85.41
2018-03-07T03:13:55.633Z,85.51
2018-03-07T03:15:00.432Z,85.51
2018-03-07T03:16:05.481Z,85.52
2018-03-07T03:17:13.400Z,85.59
2018-03-07T03:18:19.206Z,85.64
2018-03-07T03:19:24.720Z,85.71
2018-03-07T03:20:30.286Z,85.75
2018-03-07T03:21:35.278Z,85.82
2018-03-07T03:22:40.576Z,85.87
2018-03-07T03:23:45.790Z,85.90
2018-03-07T03:24:50.686Z,85.92
2018-03-07T03:25:56.098Z,86.05
2018-03-07T03:27:00.990Z,86.11
2018-03-07T03:28:06.599Z,86.14
2018-03-07T03:29:11.647Z,86.11
2018-03-07T03:30:16.764Z,86.07
2018-03-07T03:31:21.798Z,86.16
2018-03-07T03:32:27.256Z,86.28
2018-03-07T03:33:32.164Z,86.33
2018-03-07T03:34:37.426Z,86.30
2018-03-07T03:35:42.259Z,86.25
2018-03-07T03:36:47.355Z,86.22
2018-03-07T03:37:52.268Z,86.21
2018-03-07T03:38:57.553Z,86.34
2018-03-07T03:40:02.641Z,86.49
2018-03-07T03:41:07.712Z,86.55
2018-03-07T03:42:12.846Z,86.65
2018-03-07T03:43:17.872Z,86.75
2018-03-07T03:44:22.773Z,86.72
2018-03-07T03:45:27.925Z,86.57
2018-03-07T03:46:32.689Z,86.61
2018-03-07T03:47:37.599Z,86.58
2018-03-07T03:48:42.616Z,86.54
2018-03-07T03:49:48.072Z,86.41
2018-03-07T03:50:52.900Z,86.38
2018-03-07T03:51:58.063Z,86.31
2018-03-07T03:53:02.827Z,86.22
2018-03-07T03:54:07.697Z,86.24
2018-03-07T03:55:12.579Z,86.34
2018-03-07T03:56:17.428Z,86.30
2018-03-07T03:57:22.454Z,86.36
2018-03-07T03:58:27.730Z,86.51
2018-03-07T03:59:33.811Z,86.69
2018-03-07T04:00:39.057Z,86.81
2018-03-07T04:01:44.695Z,86.87
2018-03-07T04:02:49.658Z,86.96
2018-03-07T04:03:54.662Z,87.01
2018-03-07T04:05:00.865Z,87.04
2018-03-07T04:06:05.667Z,87.00
2018-03-07T04:07:10.485Z,86.93
2018-03-07T04:08:15.410Z,87.01
2018-03-07T04:09:20.480Z,87.11
2018-03-07T04:10:25.334Z,87.34
2018-03-07T04:11:30.556Z,87.51
2018-03-07T04:12:35.712Z,87.49
2018-03-07T04:13:40.979Z,87.58
2018-03-07T04:14:46.020Z,87.66
2018-03-07T04:15:50.857Z,87.70
2018-03-07T04:16:55.705Z,87.74
2018-03-07T04:18:01.000Z,87.82
2018-03-07T04:19:05.779Z,87.91
2018-03-07T04:20:12.318Z,88.06
2018-03-07T04:21:17.148Z,88.15
2018-03-07T04:22:21.925Z,88.08
2018-03-07T04:23:26.874Z,87.99
2018-03-07T04:24:32.369Z,87.92
2018-03-07T04:25:36.981Z,87.98
2018-03-07T04:26:41.998Z,88.02
2018-03-07T04:27:47.131Z,88.07
2018-03-07T04:28:52.296Z,88.04
2018-03-07T04:29:57.842Z,88.07
2018-03-07T04:31:03.085Z,88.10
2018-03-07T04:32:07.914Z,88.01
2018-03-07T04:33:13.168Z,87.95
2018-03-07T04:34:18.985Z,87.86
2018-03-07T04:35:24.089Z,87.84
2018-03-07T04:36:29.156Z,87.82
2018-03-07T04:37:34.089Z,87.80
2018-03-07T04:38:38.923Z,87.87
2018-03-07T04:39:43.796Z,87.96
2018-03-07T04:40:49.449Z,87.95
2018-03-07T04:41:54.572Z,87.97
2018-03-07T04:42:59.793Z,87.87
2018-03-07T04:44:05.130Z,87.79
2018-03-07T04:45:10.436Z,87.82
2018-03-07T04:46:15.404Z,87.86
2018-03-07T04:47:20.082Z,87.97
2018-03-07T04:48:24.820Z,88.02
2018-03-07T04:49:30.376Z,88.09
2018-03-07T04:50:35.516Z,88.30
2018-03-07T04:51:40.395Z,88.44
2018-03-07T04:52:45.383Z,88.49
2018-03-07T04:53:50.265Z,88.46
2018-03-07T04:54:55.196Z,88.45
2018-03-07T04:56:00.590Z,88.43
2018-03-07T04:57:05.577Z,88.45
2018-03-07T04:58:10.886Z,88.59
2018-03-07T04:59:16.110Z,88.73
2018-03-07T05:00:24.316Z,88.79
2018-03-07T05:01:30.238Z,88.77
2018-03-07T05:02:35.670Z,88.81
2018-03-07T05:03:40.533Z,88.81
2018-03-07T05:04:45.939Z,88.90
2018-03-07T05:05:51.070Z,89.00
2018-03-07T05:06:56.125Z,89.11
2018-03-07T05:08:01.328Z,89.13
2018-03-07T05:09:06.719Z,89.18
2018-03-07T05:10:12.288Z,89.16
2018-03-07T05:11:18.209Z,89.21
2018-03-07T05:12:24.083Z,89.30
2018-03-07T05:13:29.312Z,89.39
2018-03-07T05:14:35.187Z,89.53
2018-03-07T05:15:40.327Z,89.70
2018-03-07T05:16:45.383Z,89.87
2018-03-07T05:17:50.370Z,90.10
2018-03-07T05:18:57.246Z,90.30
2018-03-07T05:20:02.795Z,90.43
2018-03-07T05:21:08.054Z,90.65
2018-03-07T05:22:13.239Z,90.80
2018-03-07T05:23:18.534Z,90.94
2018-03-07T05:24:23.999Z,91.03
2018-03-07T05:25:29.901Z,91.05
2018-03-07T05:26:35.138Z,91.10
2018-03-07T05:27:40.852Z,91.12
2018-03-07T05:28:46.103Z,91.18
2018-03-07T05:29:51.579Z,91.15
2018-03-07T05:30:57.293Z,91.09
2018-03-07T05:32:02.798Z,90.95
2018-03-07T05:33:08.545Z,90.79
2018-03-07T05:34:14.248Z,90.67
2018-03-07T05:35:20.122Z,90.55
2018-03-07T05:36:25.858Z,90.54
2018-03-07T05:37:31.135Z,90.62
2018-03-07T05:38:36.594Z,90.69
2018-03-07T05:39:42.616Z,90.68
2018-03-07T05:40:48.552Z,90.68
2018-03-07T05:41:54.175Z,90.71
2018-03-07T05:43:00.033Z,90.66
2018-03-07T05:44:05.665Z,90.58
2018-03-07T05:45:11.480Z,90.43
2018-03-07T05:46:17.532Z,90.33
2018-03-07T05:47:22.990Z,90.20
2018-03-07T05:48:28.612Z,90.04
2018-03-07T05:49:34.616Z,89.92
2018-03-07T05:50:40.181Z,89.83
2018-03-07T05:51:45.972Z,89.77
2018-03-07T05:52:52.514Z,89.81
2018-03-07T05:53:58.372Z,89.87
2018-03-07T05:55:03.810Z,89.91
2018-03-07T05:56:09.503Z,89.87
2018-03-07T05:57:15.049Z,89.86
2018-03-07T05:58:20.648Z,89.92
2018-03-07T05:59:26.318Z,89.92
2018-03-07T06:00:32.113Z,89.89
2018-03-07T06:01:37.900Z,89.91
2018-03-07T06:02:43.397Z,89.99
2018-03-07T06:03:49.023Z,90.04
2018-03-07T06:04:54.915Z,90.24
2018-03-07T06:06:00.632Z,90.36
2018-03-07T06:07:06.339Z,90.46
2018-03-07T06:08:11.992Z,90.53
2018-03-07T06:09:18.128Z,90.59
2018-03-07T06:10:23.542Z,90.64
2018-03-07T06:11:29.236Z,90.73
2018-03-07T06:12:35.032Z,90.79
2018-03-07T06:13:40.931Z,90.78
2018-03-07T06:14:46.460Z,90.84
2018-03-07T06:15:52.854Z,90.92
2018-03-07T06:16:58.593Z,90.98
2018-03-07T06:18:04.943Z,91.09
2018-03-07T06:19:10.624Z,91.12
2018-03-07T06:20:16.154Z,91.22
2018-03-07T06:21:21.817Z,91.26
2018-03-07T06:22:28.312Z,91.34
2018-03-07T06:23:34.001Z,91.43
2018-03-07T06:24:39.672Z,91.45
2018-03-07T06:25:45.389Z,91.43
2018-03-07T06:26:51.071Z,91.50
2018-03-07T06:27:56.829Z,91.54
2018-03-07T06:29:02.931Z,91.63
2018-03-07T06:30:08.575Z,91.75
2018-03-07T06:31:14.146Z,91.81
2018-03-07T06:32:20.520Z,91.94
2018-03-07T06:33:25.983Z,92.00
2018-03-07T06:34:31.668Z,92.04
2018-03-07T06:35:37.707Z,92.13
2018-03-07T06:36:43.564Z,92.23
2018-03-07T06:37:49.445Z,92.31
2018-03-07T06:38:55.135Z,92.40
2018-03-07T06:40:00.665Z,92.46
2018-03-07T06:41:06.267Z,92.47
2018-03-07T06:42:12.212Z,92.53
2018-03-07T06:43:18.349Z,92.48
2018-03-07T06:44:24.108Z,92.55
2018-03-07T06:45:29.847Z,92.60
2018-03-07T06:46:35.124Z,92.67
2018-03-07T06:47:40.791Z,92.72
2018-03-07T06:48:46.739Z,92.76
2018-03-07T06:49:52.370Z,92.85
2018-03-07T06:50:57.989Z,92.96
2018-03-07T06:52:03.459Z,93.06
2018-03-07T06:53:09.461Z,93.14
2018-03-07T06:54:15.260Z,93.21
2018-03-07T06:55:21.438Z,93.27
2018-03-07T06:56:27.037Z,93.27
2018-03-07T06:57:32.685Z,93.28
2018-03-07T06:58:38.472Z,93.28
2018-03-07T06:59:43.781Z,93.27
2018-03-07T07:00:49.464Z,93.25
2018-03-07T07:01:55.415Z,93.25
2018-03-07T07:03:00.984Z,93.21
2018-03-07T07:04:06.734Z,93.23
2018-03-07T07:05:12.209Z,93.28
2018-03-07T07:06:17.610Z,93.30
2018-03-07T07:07:23.537Z,93.30
2018-03-07T07:08:29.450Z,93.30
2018-03-07T07:09:34.956Z,93.30
2018-03-07T07:10:40.296Z,93.24
2018-03-07T07:11:45.993Z,93.14
2018-03-07T07:12:51.370Z,93.11
2018-03-07T07:13:56.971Z,93.13
2018-03-07T07:15:03.856Z,93.14
2018-03-07T07:16:09.613Z,93.12
2018-03-07T07:17:15.175Z,93.08
2018-03-07T07:18:20.619Z,93.06
2018-03-07T07:19:26.063Z,93.05
2018-03-07T07:20:31.682Z,92.98
2018-03-07T07:21:37.768Z,92.87
2018-03-07T07:22:43.466Z,92.88
2018-03-07T07:23:49.084Z,93.11
2018-03-07T07:24:54.686Z,93.27
2018-03-07T07:26:00.255Z,93.33
2018-03-07T07:27:05.738Z,93.24
2018-03-07T07:28:11.933Z,93.20
2018-03-07T07:29:17.479Z,93.22
2018-03-07T07:30:22.828Z,93.29
2018-03-07T07:31:28.211Z,93.42
2018-03-07T07:32:33.607Z,93.53
2018-03-07T07:33:39.263Z,93.62
2018-03-07T07:34:44.598Z,93.66
2018-03-07T07:35:50.424Z,93.77
2018-03-07T07:36:56.455Z,93.82
2018-03-07T07:38:02.038Z,93.88
2018-03-07T07:39:07.501Z,93.89
2018-03-07T07:40:13.922Z,93.83
2018-03-07T07:41:19.541Z,93.75
2018-03-07T07:42:25.302Z,93.73
2018-03-07T07:43:31.253Z,93.67
2018-03-07T07:44:36.767Z,93.59
2018-03-07T07:45:42.054Z,93.50
2018-03-07T07:46:47.687Z,93.45
2018-03-07T07:47:53.206Z,93.40
2018-03-07T07:48:58.815Z,93.34
2018-03-07T07:50:04.470Z,93.21
2018-03-07T07:51:09.852Z,93.09
2018-03-07T07:52:15.990Z,92.96
2018-03-07T07:53:21.242Z,92.88
2018-03-07T07:54:26.513Z,92.88
2018-03-07T07:55:32.084Z,92.79
2018-03-07T07:56:37.492Z,92.66
2018-03-07T07:57:42.841Z,92.54
2018-03-07T07:58:48.378Z,92.35
2018-03-07T07:59:53.844Z,92.06
2018-03-07T08:00:59.327Z,91.90
2018-03-07T08:02:04.919Z,91.71
2018-03-07T08:03:10.362Z,91.51
2018-03-07T08:04:16.648Z,91.45
2018-03-07T08:05:22.315Z,91.29
2018-03-07T08:06:27.841Z,91.15
2018-03-07T08:07:33.444Z,90.97
2018-03-07T08:08:39.060Z,90.88
2018-03-07T08:09:45.288Z,90.65
2018-03-07T08:10:50.828Z,90.47
2018-03-07T08:11:56.284Z,90.39
2018-03-07T08:13:01.917Z,90.26
2018-03-07T08:14:07.703Z,90.14
2018-03-07T08:15:13.285Z,90.09
2018-03-07T08:16:19.910Z,90.09
2018-03-07T08:17:25.387Z,90.11
2018-03-07T08:18:30.653Z,90.08
2018-03-07T08:19:36.211Z,90.08
2018-03-07T08:20:41.770Z,89.98
2018-03-07T08:21:47.371Z,89.99
2018-03-07T08:22:53.474Z,89.93
2018-03-07T08:23:58.847Z,89.71
2018-03-07T08:25:04.843Z,89.57
2018-03-07T08:26:10.259Z,89.23
2018-03-07T08:27:15.820Z,89.06
2018-03-07T08:28:21.316Z,88.92
2018-03-07T08:29:27.198Z,88.85
2018-03-07T08:30:32.718Z,89.01
2018-03-07T08:31:38.238Z,88.95
2018-03-07T08:32:43.757Z,89.12
2018-03-07T08:33:49.087Z,89.32
2018-03-07T08:34:54.805Z,89.45
2018-03-07T08:36:00.398Z,89.62
2018-03-07T08:37:05.706Z,89.74
2018-03-07T08:38:10.928Z,89.79
2018-03-07T08:39:16.276Z,89.76
2018-03-07T08:40:21.686Z,89.68
2018-03-07T08:41:27.024Z,89.58
2018-03-07T08:42:32.834Z,89.54
2018-03-07T08:43:38.150Z,89.58
2018-03-07T08:44:43.627Z,89.53
2018-03-07T08:45:49.151Z,89.36
2018-03-07T08:46:54.631Z,89.18
2018-03-07T08:48:00.132Z,88.78
2018-03-07T08:49:06.414Z,88.32
2018-03-07T08:50:11.800Z,87.69
2018-03-07T08:51:17.214Z,86.82
2018-03-07T08:52:22.440Z,85.73
2018-03-07T08:53:28.108Z,85.09
2018-03-07T08:54:33.428Z,84.45
2018-03-07T08:55:39.386Z,82.80
2018-03-07T08:56:45.094Z,81.44
2018-03-07T08:57:51.104Z,81.48
2018-03-07T08:58:56.684Z,81.60
2018-03-07T09:00:02.687Z,81.46
2018-03-07T09:01:08.180Z,81.62
2018-03-07T09:02:14.110Z,81.97
2018-03-07T09:03:19.513Z,81.00
2018-03-07T09:04:24.901Z,80.57
2018-03-07T09:05:30.194Z,80.10
2018-03-07T09:06:35.585Z,80.14
2018-03-07T09:07:40.855Z,79.03
2018-03-07T09:08:46.073Z,76.73
2018-03-07T09:09:51.506Z,74.92
2018-03-07T09:10:57.338Z,73.32
2018-03-07T09:12:02.691Z,73.42
2018-03-07T09:13:08.067Z,72.66
2018-03-07T09:14:13.494Z,72.79
2018-03-07T09:15:18.879Z,72.88
2018-03-07T09:16:24.369Z,72.95
2018-03-07T09:17:29.829Z,73.05
2018-03-07T09:18:35.214Z,73.40
2018-03-07T09:19:40.604Z,73.40
2018-03-07T09:20:46.265Z,73.04
2018-03-07T09:21:51.661Z,73.35
2018-03-07T09:22:57.301Z,73.33
2018-03-07T09:24:03.988Z,73.52
2018-03-07T09:25:10.120Z,73.91
2018-03-07T09:26:15.434Z,74.28
2018-03-07T09:27:20.882Z,74.94
2018-03-07T09:28:26.151Z,75.27
2018-03-07T09:29:32.157Z,75.32
2018-03-07T09:30:37.344Z,75.50
2018-03-07T09:31:42.708Z,75.59
2018-03-07T09:32:49.173Z,75.80
2018-03-07T09:33:54.550Z,76.01
2018-03-07T09:34:59.934Z,76.13
2018-03-07T09:36:05.296Z,76.21
2018-03-07T09:37:10.414Z,76.54
2018-03-07T09:38:15.801Z,76.88
2018-03-07T09:39:21.783Z,77.40
2018-03-07T09:40:27.098Z,77.62
2018-03-07T09:41:33.059Z,77.89
2018-03-07T09:42:38.612Z,78.04
2018-03-07T09:43:44.162Z,78.07
2018-03-07T09:44:49.560Z,78.45
2018-03-07T09:45:54.980Z,79.23
2018-03-07T09:47:00.326Z,79.56
2018-03-07T09:48:05.754Z,79.72
2018-03-07T09:49:11.216Z,79.94
2018-03-07T09:50:16.448Z,79.97
2018-03-07T09:51:22.544Z,80.14
2018-03-07T09:52:27.731Z,80.82
2018-03-07T09:53:33.044Z,81.23
2018-03-07T09:54:38.320Z,81.47
2018-03-07T09:55:43.549Z,81.72
2018-03-07T09:56:48.939Z,81.97
2018-03-07T09:57:55.043Z,82.19
2018-03-07T09:59:00.602Z,82.09
2018-03-07T10:00:06.270Z,82.29
2018-03-07T10:01:11.644Z,82.32
2018-03-07T10:02:17.088Z,82.26
2018-03-07T10:03:22.354Z,82.39
2018-03-07T10:04:27.921Z,82.71
2018-03-07T10:05:33.199Z,82.90
2018-03-07T10:06:38.561Z,82.99
2018-03-07T10:07:43.767Z,83.14
2018-03-07T10:08:49.082Z,83.19
2018-03-07T10:09:54.442Z,83.25
2018-03-07T10:11:00.166Z,83.39
2018-03-07T10:12:05.534Z,83.50
2018-03-07T10:13:10.894Z,83.59
2018-03-07T10:14:16.119Z,83.62
2018-03-07T10:15:23.764Z,83.52
2018-03-07T10:16:29.481Z,83.36
2018-03-07T10:17:34.857Z,83.51
2018-03-07T10:18:40.121Z,83.56
2018-03-07T10:19:45.423Z,83.73
2018-03-07T10:20:50.827Z,83.82
2018-03-07T10:21:56.869Z,83.98
2018-03-07T10:23:02.631Z,83.91
2018-03-07T10:24:07.986Z,84.02
2018-03-07T10:25:13.218Z,83.92
2018-03-07T10:26:18.782Z,84.00
2018-03-07T10:27:24.144Z,83.95
2018-03-07T10:28:29.430Z,83.85
2018-03-07T10:29:35.877Z,83.81
2018-03-07T10:30:41.160Z,84.19
2018-03-07T10:31:46.436Z,84.42
2018-03-07T10:32:51.757Z,84.39
2018-03-07T10:33:57.137Z,84.09
2018-03-07T10:35:02.567Z,84.07
2018-03-07T10:36:08.366Z,84.37
2018-03-07T10:37:13.615Z,84.55
2018-03-07T10:38:18.951Z,84.78
2018-03-07T10:39:24.128Z,85.01
2018-03-07T10:40:29.563Z,85.12
2018-03-07T10:41:35.229Z,85.21
2018-03-07T10:42:43.136Z,85.42
2018-03-07T10:43:48.970Z,85.54
2018-03-07T10:44:54.379Z,85.72
2018-03-07T10:46:01.572Z,85.85
2018-03-07T10:47:07.562Z,85.79
2018-03-07T10:48:13.759Z,85.83
2018-03-07T10:49:20.018Z,85.98
2018-03-07T10:50:25.750Z,86.13
2018-03-07T10:51:31.091Z,86.29
2018-03-07T10:52:37.255Z,86.26
2018-03-07T10:53:43.191Z,86.37
2018-03-07T10:54:48.933Z,86.52
2018-03-07T10:55:55.760Z,86.60
2018-03-07T10:57:02.849Z,86.59
2018-03-07T10:58:08.588Z,86.63
2018-03-07T10:59:14.464Z,86.79
2018-03-07T11:00:26.918Z,86.66
2018-03-07T11:01:33.536Z,86.75
2018-03-07T11:02:40.252Z,86.85
2018-03-07T11:03:48.086Z,86.84
2018-03-07T11:05:00.271Z,86.89
2018-03-07T11:06:05.928Z,86.89
2018-03-07T11:07:11.444Z,86.87
2018-03-07T11:08:17.870Z,86.87
2018-03-07T11:09:24.455Z,86.90
2018-03-07T11:10:30.689Z,86.92
2018-03-07T11:11:36.657Z,86.89
2018-03-07T11:12:42.166Z,86.83
2018-03-07T11:13:47.278Z,86.84
2018-03-07T11:14:52.657Z,86.99
2018-03-07T11:15:58.439Z,87.08
2018-03-07T11:17:03.870Z,87.06
2018-03-07T11:18:09.009Z,87.01
2018-03-07T11:19:14.256Z,86.87
2018-03-07T11:20:20.446Z,86.98
2018-03-07T11:21:25.849Z,87.11
2018-03-07T11:22:31.263Z,87.18
2018-03-07T11:23:36.685Z,87.09
2018-03-07T11:24:42.154Z,87.17
2018-03-07T11:25:47.424Z,87.57
2018-03-07T11:26:52.776Z,87.89
2018-03-07T11:27:58.127Z,88.02
2018-03-07T11:29:04.086Z,88.09
2018-03-07T11:30:10.011Z,88.32
2018-03-07T11:31:15.360Z,88.58
2018-03-07T11:32:20.672Z,88.77
2018-03-07T11:33:26.286Z,88.85
2018-03-07T11:34:32.192Z,88.94
2018-03-07T11:35:37.435Z,89.20
2018-03-07T11:36:42.831Z,89.38
2018-03-07T11:37:48.142Z,89.54
2018-03-07T11:38:53.383Z,89.65
2018-03-07T11:39:58.931Z,89.66
2018-03-07T11:41:04.689Z,89.79
2018-03-07T11:42:09.881Z,89.86
2018-03-07T11:43:16.135Z,89.81
2018-03-07T11:44:21.317Z,89.81
2018-03-07T11:45:26.553Z,89.81
2018-03-07T11:46:32.211Z,89.91
2018-03-07T11:47:38.022Z,89.93
2018-03-07T11:48:43.290Z,89.94
2018-03-07T11:49:48.510Z,89.82
2018-03-07T11:50:53.647Z,89.44
2018-03-07T11:51:59.470Z,89.39
2018-03-07T11:53:05.095Z,89.26
2018-03-07T11:54:10.282Z,89.09
2018-03-07T11:55:16.087Z,89.25
2018-03-07T11:56:21.676Z,89.40
2018-03-07T11:57:26.934Z,89.58
2018-03-07T11:58:32.194Z,89.68
2018-03-07T11:59:37.838Z,89.68
2018-03-07T12:00:43.117Z,89.73
2018-03-07T12:01:48.285Z,89.78
2018-03-07T12:02:53.569Z,89.46
2018-03-07T12:03:58.887Z,89.35
2018-03-07T12:05:04.200Z,89.30
2018-03-07T12:06:09.889Z,89.30
2018-03-07T12:07:15.178Z,89.33
2018-03-07T12:08:20.472Z,88.94
2018-03-07T12:09:25.705Z,88.72
2018-03-07T12:10:31.025Z,88.57
2018-03-07T12:11:37.137Z,88.30
2018-03-07T12:12:42.634Z,88.22
2018-03-07T12:13:48.081Z,88.31
2018-03-07T12:14:53.077Z,88.33
2018-03-07T12:15:58.222Z,88.37
2018-03-07T12:17:03.350Z,88.43
2018-03-07T12:18:08.549Z,88.28
2018-03-07T12:19:13.990Z,88.33
2018-03-07T12:20:19.102Z,88.18
2018-03-07T12:21:24.095Z,88.05
2018-03-07T12:22:29.476Z,87.96
2018-03-07T12:23:34.882Z,87.96
2018-03-07T12:24:39.948Z,87.81
2018-03-07T12:25:45.479Z,87.73
2018-03-07T12:26:50.963Z,87.64
2018-03-07T12:27:56.201Z,87.59
2018-03-07T12:29:01.466Z,87.50
2018-03-07T12:30:06.569Z,87.47
2018-03-07T12:31:11.701Z,87.51
2018-03-07T12:32:17.052Z,87.37
2018-03-07T12:33:22.170Z,87.39
2018-03-07T12:34:28.040Z,87.32
2018-03-07T12:35:33.376Z,87.28
2018-03-07T12:36:38.622Z,87.32
2018-03-07T12:37:43.731Z,87.31
2018-03-07T12:38:49.127Z,86.97
2018-03-07T12:39:54.301Z,86.82
2018-03-07T12:40:59.749Z,86.73
2018-03-07T12:42:05.008Z,86.44
2018-03-07T12:43:10.139Z,86.12
2018-03-07T12:44:16.150Z,85.94
2018-03-07T12:45:21.377Z,85.62
2018-03-07T12:46:26.540Z,85.52
2018-03-07T12:47:31.692Z,85.40
2018-03-07T12:48:36.954Z,85.31
2018-03-07T12:49:42.160Z,85.20
2018-03-07T12:50:47.577Z,85.13
2018-03-07T12:51:52.839Z,85.00
2018-03-07T12:52:58.273Z,85.00
2018-03-07T12:54:03.750Z,84.97
2018-03-07T12:55:08.983Z,84.80
2018-03-07T12:56:14.108Z,84.64
2018-03-07T12:57:19.617Z,84.54
2018-03-07T12:58:24.771Z,84.61
2018-03-07T12:59:29.900Z,84.62
2018-03-07T13:00:35.353Z,84.26
2018-03-07T13:01:40.756Z,84.17
2018-03-07T13:02:45.866Z,84.07
2018-03-07T13:03:51.431Z,84.15
2018-03-07T13:04:56.600Z,83.97
2018-03-07T13:06:03.506Z,83.94
2018-03-07T13:07:08.607Z,84.07
2018-03-07T13:08:13.769Z,83.84
2018-03-07T13:09:18.957Z,83.83
2018-03-07T13:10:24.527Z,83.66
2018-03-07T13:11:29.565Z,83.65
2018-03-07T13:12:34.490Z,83.51
2018-03-07T13:13:39.554Z,83.24
2018-03-07T13:14:44.667Z,83.16
2018-03-07T13:15:49.782Z,83.10
2018-03-07T13:16:55.324Z,83.14
2018-03-07T13:18:00.490Z,83.17
2018-03-07T13:19:06.097Z,83.08
2018-03-07T13:20:11.194Z,83.22
2018-03-07T13:21:16.286Z,83.14
2018-03-07T13:22:21.507Z,83.22
2018-03-07T13:23:27.067Z,83.09
2018-03-07T13:24:32.169Z,82.99
2018-03-07T13:25:37.370Z,83.06
2018-03-07T13:26:42.576Z,83.11
2018-03-07T13:27:47.801Z,83.03
2018-03-07T13:28:53.058Z,82.99
2018-03-07T13:29:58.203Z,82.84
2018-03-07T13:31:03.571Z,82.96
2018-03-07T13:32:08.700Z,83.00
2018-03-07T13:33:13.828Z,82.92
2018-03-07T13:34:18.971Z,82.89
2018-03-07T13:35:25.383Z,82.79
2018-03-07T13:36:31.357Z,82.71
2018-03-07T13:37:36.539Z,82.72
2018-03-07T13:38:41.687Z,82.84
2018-03-07T13:39:46.733Z,82.85
2018-03-07T13:40:51.866Z,82.85
2018-03-07T13:41:56.946Z,82.88
2018-03-07T13:43:02.322Z,82.79
2018-03-07T13:44:07.433Z,82.76
2018-03-07T13:45:12.660Z,82.87
2018-03-07T13:46:17.864Z,82.89
2018-03-07T13:47:23.398Z,82.86
2018-03-07T13:48:28.555Z,82.77
2018-03-07T13:49:33.717Z,82.73
2018-03-07T13:50:38.913Z,82.54
2018-03-07T13:51:44.375Z,82.26
2018-03-07T13:52:49.836Z,82.03
2018-03-07T13:53:55.128Z,81.72
2018-03-07T13:55:00.350Z,81.27
2018-03-07T13:56:05.471Z,81.04
2018-03-07T13:57:10.749Z,80.85
2018-03-07T13:58:15.932Z,80.48
2018-03-07T13:59:21.819Z,80.40
2018-03-07T14:00:27.111Z,80.51
2018-03-07T14:01:32.096Z,80.41
2018-03-07T14:02:37.430Z,80.36
2018-03-07T14:03:42.638Z,80.16
2018-03-07T14:04:47.843Z,80.17